Time;durP1;ratioP1;P1;durP2;ratioP2;P2;SDS_P1;SDS_P2;PMS_P1;PMS_P2;Temp;Humidity;BMP_temperature;BMP_pressure;BME280_temperature;BME280_humidity;BME280_pressure;Samples;Min_cycle;Max_cycle;Signal;HPM_P1;HPM_P2
2023/08/17 00:00:41;;;;;;;0.03;0.03;;;;;;;17.26;100.00;101824.94;5052474;28;20021;-49
2023/08/17 00:03:06;;;;;;;0.00;0.00;;;;;;;17.26;100.00;101826.66;5052688;28;20032;-49
2023/08/17 00:05:32;;;;;;;0.10;0.10;;;;;;;17.26;100.00;101831.88;5051309;28;20368;-46
2023/08/17 00:08:00;;;;;;;0.00;0.00;;;;;;;17.25;100.00;101835.34;5052426;28;20029;-48
2023/08/17 00:10:26;;;;;;;0.00;0.00;;;;;;;17.24;100.00;101829.22;5055887;28;20025;-50
2023/08/17 00:12:51;;;;;;;0.10;0.10;;;;;;;17.25;100.00;101824.91;5055628;28;20052;-48
2023/08/17 00:15:16;;;;;;;0.10;0.10;;;;;;;17.24;100.00;101821.41;5056065;28;20074;-50
2023/08/17 00:17:42;;;;;;;0.00;0.00;;;;;;;17.22;100.00;101819.63;5056371;28;20033;-47
2023/08/17 00:20:09;;;;;;;0.10;0.10;;;;;;;17.23;100.00;101816.19;5055404;28;20146;-50
2023/08/17 00:22:34;;;;;;;;;;;;;;;17.34;100.00;101817.25;5056156;28;20029;-49
2023/08/17 00:25:00;;;;;;;0.00;0.00;;;;;;;17.21;100.00;101820.47;5055550;28;19917;-48
2023/08/17 00:27:25;;;;;;;0.08;0.08;;;;;;;17.18;100.00;101817.84;5054898;28;20029;-50
2023/08/17 00:29:50;;;;;;;0.00;0.00;;;;;;;17.18;100.00;101813.50;5055767;28;20094;-48
2023/08/17 00:32:16;;;;;;;0.10;0.10;;;;;;;17.18;100.00;101813.50;5055509;28;20476;-48
2023/08/17 00:34:41;;;;;;;0.00;0.00;;;;;;;17.19;100.00;101811.78;5055339;28;20392;-49
2023/08/17 00:37:06;;;;;;;0.10;0.10;;;;;;;17.20;100.00;101810.94;5055958;28;20064;-48
2023/08/17 00:39:32;;;;;;;0.00;0.00;;;;;;;17.20;100.00;101811.81;5055130;28;20067;-48
2023/08/17 00:41:57;;;;;;;0.00;0.00;;;;;;;17.21;100.00;101810.06;5054972;28;20204;-48
2023/08/17 00:44:22;;;;;;;0.10;0.10;;;;;;;17.21;100.00;101804.84;5055235;28;20104;-50
2023/08/17 00:46:48;;;;;;;0.00;0.00;;;;;;;17.19;100.00;101810.03;5054675;28;20091;-50
2023/08/17 00:49:13;;;;;;;0.10;0.10;;;;;;;17.18;100.00;101817.84;5055278;28;20526;-50
2023/08/17 00:51:39;;;;;;;0.10;0.10;;;;;;;17.15;100.00;101816.06;5055526;28;20100;-46
2023/08/17 00:54:04;;;;;;;0.08;0.08;;;;;;;17.14;100.00;101816.03;5054679;28;20471;-48
2023/08/17 00:56:30;;;;;;;0.03;0.03;;;;;;;17.12;100.00;101818.63;5055069;28;20025;-48
2023/08/17 00:58:55;;;;;;;0.10;0.10;;;;;;;17.06;100.00;101819.38;5055594;28;20021;-48
2023/08/17 01:01:23;;;;;;;0.00;0.00;;;;;;;17.02;100.00;101817.56;5054410;28;20028;-47
2023/08/17 01:03:48;;;;;;;0.00;0.00;;;;;;;17.00;100.00;101821.84;5055332;28;20372;-50
2023/08/17 01:06:13;;;;;;;0.10;0.10;;;;;;;16.98;100.00;101825.28;5055108;28;20028;-48
2023/08/17 01:08:41;;;;;;;0.10;0.10;;;;;;;16.93;100.00;101822.59;5054313;28;20033;-49
2023/08/17 01:11:22;;;;;;;0.03;0.03;;;;;;;16.94;100.00;101830.44;5055447;28;20036;-49
2023/08/17 01:14:00;;;;;;;0.10;0.10;;;;;;;16.85;100.00;101826.72;5055261;28;20112;-48
2023/08/17 01:16:33;;;;;;;0.10;0.10;;;;;;;16.81;100.00;101822.31;5054356;28;20025;-50
2023/08/17 01:19:00;;;;;;;0.10;0.10;;;;;;;16.76;100.00;101825.72;5054977;28;20384;-48
2023/08/17 01:21:35;;;;;;;0.05;0.05;;;;;;;16.75;100.00;101818.75;5053306;28;20041;-52
2023/08/17 01:24:03;;;;;;;0.00;0.00;;;;;;;16.72;100.00;101818.69;5054458;28;20060;-49
2023/08/17 01:26:29;;;;;;;0.10;0.10;;;;;;;16.73;100.00;101816.97;5054519;28;20056;-49
2023/08/17 01:28:54;;;;;;;0.10;0.10;;;;;;;16.73;100.00;101822.16;5054585;28;20032;-48
2023/08/17 01:31:31;;;;;;;0.00;0.00;;;;;;;16.72;100.00;101816.09;5054209;28;20394;-49
2023/08/17 01:34:03;;;;;;;0.10;0.10;;;;;;;16.68;100.00;101813.38;5054712;28;20060;-50
2023/08/17 01:36:35;;;;;;;0.00;0.00;;;;;;;16.67;100.00;101809.03;5053616;28;20033;-49
2023/08/17 01:39:03;;;;;;;0.00;0.00;;;;;;;16.62;100.00;101806.34;5054990;28;20112;-49
2023/08/17 01:41:29;;;;;;;0.10;0.10;;;;;;;16.58;100.00;101812.34;5054375;28;20024;-50
2023/08/17 01:43:56;;;;;;;0.10;0.10;;;;;;;16.58;100.00;101810.59;5053823;28;20028;-48
2023/08/17 01:46:22;;;;;;;0.10;0.10;;;;;;;16.58;100.00;101801.94;5054104;28;20032;-50
2023/08/17 01:48:47;;;;;;;0.10;0.10;;;;;;;16.58;100.00;101799.34;5054613;28;20295;-49
2023/08/17 01:51:22;;;;;;;0.10;0.10;;;;;;;16.57;100.00;101802.78;5053255;28;20147;-51
2023/08/17 01:53:47;;;;;;;0.10;0.10;;;;;;;16.57;100.00;101807.97;5054550;28;20029;-48
2023/08/17 01:56:13;;;;;;;0.10;0.10;;;;;;;16.57;100.00;101800.19;5053975;28;20154;-49
2023/08/17 01:58:38;;;;;;;0.10;0.10;;;;;;;16.55;100.00;101802.75;5053590;28;20045;-50
2023/08/17 02:01:04;;;;;;;0.10;0.10;;;;;;;16.54;100.00;101803.59;5054158;28;20090;-49
2023/08/17 02:03:29;;;;;;;0.00;0.00;;;;;;;16.52;100.00;101799.19;5053789;28;20151;-49
2023/08/17 02:05:58;;;;;;;0.10;0.10;;;;;;;16.51;100.00;101802.66;5053682;28;20086;-48
2023/08/17 02:08:24;;;;;;;0.00;0.00;;;;;;;16.49;100.00;101809.53;5053687;28;20032;-48
2023/08/17 02:10:49;;;;;;;0.10;0.10;;;;;;;16.46;100.00;101805.13;5053744;28;20025;-50
2023/08/17 02:13:16;;;;;;;0.10;0.10;;;;;;;16.41;100.00;101812.88;5053367;28;20029;-49
2023/08/17 02:15:41;;;;;;;0.10;0.10;;;;;;;16.35;100.00;101810.13;5053908;28;20421;-49
2023/08/17 02:18:07;;;;;;;0.10;0.10;;;;;;;16.29;100.00;101799.59;5053927;28;20476;-49
2023/08/17 02:20:32;;;;;;;0.10;0.10;;;;;;;16.25;100.00;101805.56;5053264;28;20357;-47
2023/08/17 02:22:57;;;;;;;0.10;0.10;;;;;;;16.17;100.00;101807.16;5054059;28;20039;-46
2023/08/17 02:25:23;;;;;;;0.00;0.00;;;;;;;16.10;100.00;101808.72;5052643;28;20037;-47
2023/08/17 02:27:48;;;;;;;0.10;0.10;;;;;;;16.02;100.00;101807.66;5053779;28;20031;-48
2023/08/17 02:30:14;;;;;;;0.00;0.00;;;;;;;15.98;100.00;101811.91;5053314;28;20064;-49
2023/08/17 02:32:39;;;;;;;0.10;0.10;;;;;;;15.92;100.00;101814.38;5052561;28;20021;-48
2023/08/17 02:35:05;;;;;;;0.10;0.10;;;;;;;15.85;100.00;101804.69;5053807;28;20025;-45
2023/08/17 02:37:30;;;;;;;0.00;0.00;;;;;;;15.79;100.00;101800.22;5053506;28;20028;-48
2023/08/17 02:39:55;;;;;;;0.10;0.10;;;;;;;15.76;100.00;101801.03;5052981;28;20131;-48
2023/08/17 02:42:21;;;;;;;0.10;0.10;;;;;;;15.79;100.00;101805.41;5053595;28;20033;-48
2023/08/17 02:44:46;;;;;;;0.00;0.00;;;;;;;15.80;100.00;101802.84;5053767;28;20068;-44
2023/08/17 02:47:12;;;;;;;0.10;0.10;;;;;;;15.84;100.00;101796.03;5052181;28;20072;-46
2023/08/17 02:49:37;;;;;;;0.10;0.10;;;;;;;15.89;100.00;101796.13;5053482;28;20035;-47
2023/08/17 02:52:02;;;;;;;0.10;0.10;;;;;;;15.87;100.00;101790.00;5053439;28;20543;-48
2023/08/17 02:54:28;;;;;;;0.10;0.10;;;;;;;15.86;100.00;101791.72;5052212;28;20037;-50
2023/08/17 02:56:53;;;;;;;0.10;0.10;;;;;;;15.85;100.00;101794.28;5053202;28;20025;-48
2023/08/17 02:59:18;;;;;;;0.10;0.10;;;;;;;15.83;100.00;101788.16;5052885;28;20072;-46
2023/08/17 03:01:45;;;;;;;0.00;0.00;;;;;;;15.76;100.00;101790.63;5052593;28;20052;-49
2023/08/17 03:04:10;;;;;;;0.10;0.10;;;;;;;15.70;100.00;101786.97;5053334;28;20070;-48
2023/08/17 03:06:36;;;;;;;0.10;0.10;;;;;;;15.66;100.00;101788.66;5052433;28;20029;-49
2023/08/17 03:09:01;;;;;;;0.10;0.10;;;;;;;15.64;100.00;101790.31;5052547;28;20064;-50
2023/08/17 03:11:26;;;;;;;0.10;0.10;;;;;;;15.65;100.00;101781.69;5052679;28;20029;-49
2023/08/17 03:13:54;;;;;;;0.10;0.10;;;;;;;15.64;100.00;101795.50;5052712;28;20028;-49
2023/08/17 03:16:19;;;;;;;0.10;0.10;;;;;;;15.62;100.00;101781.59;5052040;28;20464;-49
2023/08/17 03:18:44;;;;;;;0.10;0.10;;;;;;;15.59;100.00;101784.13;5053073;28;20074;-49
2023/08/17 03:21:09;;;;;;;0.10;0.10;;;;;;;15.56;100.00;101786.66;5052721;28;20029;-49
2023/08/17 03:23:35;;;;;;;0.10;0.10;;;;;;;15.52;100.00;101790.91;5051800;28;20036;-48
2023/08/17 03:26:00;;;;;;;0.10;0.10;;;;;;;15.51;100.00;101790.88;5052856;28;20025;-49
2023/08/17 03:28:27;;;;;;;0.00;0.00;;;;;;;15.52;100.00;101787.41;5052119;28;20427;-47
2023/08/17 03:30:56;;;;;;;0.10;0.10;;;;;;;15.52;100.00;101787.41;5052511;28;20119;-49
2023/08/17 03:33:21;;;;;;;0.08;0.08;;;;;;;15.53;100.00;101781.38;5052689;28;20041;-49
2023/08/17 03:35:47;;;;;;;0.08;0.08;;;;;;;15.51;100.00;101773.56;5051865;28;20032;-49
2023/08/17 03:38:12;;;;;;;0.00;0.00;;;;;;;15.51;100.00;101783.09;5052368;28;20472;-48
2023/08/17 03:40:37;;;;;;;0.10;0.10;;;;;;;15.51;100.00;101783.09;5052742;28;20079;-48
2023/08/17 03:43:03;;;;;;;0.10;0.10;;;;;;;15.52;100.00;101782.22;5051888;28;20020;-50
2023/08/17 03:45:29;;;;;;;0.10;0.10;;;;;;;15.52;100.00;101774.41;5056661;28;20029;-48
2023/08/17 03:47:54;;;;;;;0.03;0.03;;;;;;;15.53;100.00;101777.09;5056990;28;20111;-49
2023/08/17 03:50:20;;;;;;;0.00;0.00;;;;;;;15.54;100.00;101772.75;5055674;28;20475;-50
2023/08/17 03:52:45;;;;;;;0.10;0.10;;;;;;;15.54;100.00;101778.81;5056773;28;20030;-49
2023/08/17 03:55:12;;;;;;;0.05;0.05;;;;;;;15.54;100.00;101772.75;5056710;28;20029;-49
2023/08/17 03:57:37;;;;;;;0.10;0.10;;;;;;;15.54;100.00;101772.75;5055580;28;20037;-49
2023/08/17 04:00:03;;;;;;;0.10;0.10;;;;;;;15.50;100.00;101773.53;5056757;28;20295;-50
2023/08/17 04:02:28;;;;;;;0.10;0.10;;;;;;;15.45;100.00;101784.69;5056116;28;20438;-50
2023/08/17 04:04:54;;;;;;;0.10;0.10;;;;;;;15.45;100.00;101783.78;5055960;28;20021;-50
2023/08/17 04:07:22;;;;;;;0.10;0.10;;;;;;;15.42;100.00;101789.78;5056160;28;20041;-48
2023/08/17 04:09:47;;;;;;;0.10;0.10;;;;;;;15.44;100.00;101792.41;5056122;28;20025;-49
2023/08/17 04:12:13;;;;;;;0.10;0.10;;;;;;;15.43;100.00;101796.75;5055326;28;20024;-51
2023/08/17 04:14:38;;;;;;;0.10;0.10;;;;;;;15.43;100.00;101804.53;5056444;28;20039;-50
2023/08/17 04:17:03;;;;;;;0.10;0.10;;;;;;;15.43;100.00;101801.06;5056151;28;20039;-49
2023/08/17 04:19:29;;;;;;;0.10;0.10;;;;;;;15.42;100.00;101804.50;5055199;28;20057;-48
2023/08/17 04:21:54;;;;;;;0.10;0.10;;;;;;;15.41;100.00;101807.94;5056148;28;20036;-49
2023/08/17 04:24:19;;;;;;;0.10;0.10;;;;;;;15.38;100.00;101798.34;5055249;28;20041;-47
2023/08/17 04:26:45;;;;;;;0.10;0.10;;;;;;;15.38;100.00;101807.88;5055201;28;20032;-50
2023/08/17 04:29:10;;;;;;;0.03;0.03;;;;;;;15.37;100.00;101812.19;5055737;28;20025;-50
2023/08/17 04:31:36;;;;;;;0.10;0.10;;;;;;;15.37;100.00;101816.50;5055374;28;20044;-50
2023/08/17 04:34:01;;;;;;;0.10;0.10;;;;;;;15.34;100.00;101814.72;5055335;28;20036;-48
2023/08/17 04:36:26;;;;;;;0.10;0.10;;;;;;;15.35;100.00;101813.88;5055406;28;20029;-48
2023/08/17 04:38:52;;;;;;;0.00;0.00;;;;;;;15.36;100.00;101817.34;5054882;28;20029;-48
2023/08/17 04:41:17;;;;;;;0.05;0.05;;;;;;;15.36;100.00;101809.53;5055462;28;20036;-48
2023/08/17 04:43:42;;;;;;;0.10;0.10;;;;;;;15.37;100.00;101816.50;5055757;28;20600;-46
2023/08/17 04:46:08;;;;;;;0.10;0.10;;;;;;;15.38;100.00;101813.94;5055025;28;20048;-48
2023/08/17 04:48:33;;;;;;;0.10;0.10;;;;;;;15.40;100.00;101811.38;5055224;28;20425;-49
2023/08/17 04:50:59;;;;;;;0.08;0.08;;;;;;;15.43;100.00;101812.34;5055670;28;20545;-49
2023/08/17 04:53:24;;;;;;;0.10;0.10;;;;;;;15.45;100.00;101815.88;5054480;28;20063;-47
2023/08/17 04:55:49;;;;;;;0.10;0.10;;;;;;;15.46;100.00;101811.53;5055285;28;20096;-45
2023/08/17 04:58:14;;;;;;;0.10;0.10;;;;;;;15.46;100.00;101811.53;5054991;28;20456;-47
2023/08/17 05:00:41;;;;;;;0.10;0.10;;;;;;;15.45;100.00;101808.06;5054526;28;20024;-47
2023/08/17 05:03:06;;;;;;;0.10;0.10;;;;;;;15.43;100.00;101808.88;5055367;28;20021;-47
2023/08/17 05:05:32;;;;;;;0.10;0.10;;;;;;;15.38;100.00;101808.75;5055077;28;20032;-48
2023/08/17 05:07:57;;;;;;;0.00;0.00;;;;;;;15.37;100.00;101806.97;5054715;28;20033;-46
2023/08/17 05:10:22;;;;;;;0.10;0.10;;;;;;;15.35;100.00;101807.78;5054730;28;20464;-45
2023/08/17 05:12:48;;;;;;;0.10;0.10;;;;;;;15.33;100.00;101802.56;5054793;28;20061;-45
2023/08/17 05:15:13;;;;;;;0.00;0.00;;;;;;;15.32;100.00;101803.38;5054100;28;20029;-44
2023/08/17 05:17:39;;;;;;;0.10;0.10;;;;;;;15.33;100.00;101797.38;5055034;28;20468;-49
2023/08/17 05:20:05;;;;;;;0.10;0.10;;;;;;;15.35;100.00;101805.19;5054863;28;20112;-50
2023/08/17 05:22:30;;;;;;;0.10;0.10;;;;;;;15.36;100.00;101797.41;5054027;28;20132;-45
2023/08/17 05:24:55;;;;;;;0.00;0.00;;;;;;;15.37;100.00;101796.59;5054670;28;20041;-45
2023/08/17 05:27:21;;;;;;;0.10;0.10;;;;;;;15.39;100.00;101807.00;5054374;28;20067;-49
2023/08/17 05:29:46;;;;;;;0.10;0.10;;;;;;;15.41;100.00;101802.75;5054120;28;20087;-47
2023/08/17 05:32:11;;;;;;;0.00;0.00;;;;;;;15.43;100.00;101798.47;5054313;28;20021;-47
2023/08/17 05:34:37;;;;;;;0.10;0.10;;;;;;;15.45;100.00;101800.28;5054349;28;20029;-49
2023/08/17 05:37:02;;;;;;;0.10;0.10;;;;;;;15.47;100.00;101798.56;5054146;28;20028;-49
2023/08/17 05:39:28;;;;;;;0.10;0.10;;;;;;;15.51;100.00;101799.53;5054371;28;20468;-48
2023/08/17 05:41:53;;;;;;;0.10;0.10;;;;;;;15.54;100.00;101794.41;5054214;28;20024;-49
2023/08/17 05:44:18;;;;;;;0.10;0.10;;;;;;;15.58;100.00;101798.84;5053869;28;20033;-43
2023/08/17 05:46:44;;;;;;;0.10;0.10;;;;;;;15.64;100.00;101798.13;5054456;28;20135;-47
2023/08/17 05:49:09;;;;;;;0.10;0.10;;;;;;;15.74;100.00;101807.03;5053649;28;20472;-49
2023/08/17 05:51:35;;;;;;;0.10;0.10;;;;;;;15.77;100.00;101807.09;5053881;28;20029;-50
2023/08/17 05:54:00;;;;;;;0.10;0.10;;;;;;;15.88;100.00;101804.75;5054302;28;20009;-44
2023/08/17 05:56:25;;;;;;;0.10;0.10;;;;;;;16.00;100.00;101810.25;5053265;28;20071;-49
2023/08/17 05:58:51;;;;;;;0.10;0.10;;;;;;;16.13;100.00;101811.41;5054447;28;20029;-49
2023/08/17 06:01:16;;;;;;;0.00;0.00;;;;;;;16.19;100.00;101815.84;5054001;28;20459;-48
2023/08/17 06:03:42;;;;;;;0.10;0.10;;;;;;;16.25;100.00;101823.78;5053505;28;20421;-45
2023/08/17 06:06:09;;;;;;;0.10;0.10;;;;;;;16.21;100.00;101821.97;5053470;28;20013;-44
2023/08/17 06:08:34;;;;;;;;;;;;;;;16.38;100.00;101828.41;5053828;28;20059;-45
2023/08/17 06:11:00;;;;;;;0.10;0.10;;;;;;;16.22;100.00;101826.34;5053385;28;19960;-46
2023/08/17 06:13:25;;;;;;;0.10;0.10;;;;;;;16.19;100.00;101840.16;5053834;28;20348;-49
2023/08/17 06:15:51;;;;;;;0.10;0.10;;;;;;;16.19;100.00;101831.44;5053706;28;20096;-45
2023/08/17 06:18:16;;;;;;;0.10;0.10;;;;;;;16.15;100.00;101838.28;5053119;28;20048;-50
2023/08/17 06:20:42;;;;;;;0.10;0.10;;;;;;;16.13;100.00;101838.28;5053816;28;20073;-50
2023/08/17 06:23:07;;;;;;;0.10;0.10;;;;;;;16.10;100.00;101835.63;5053634;28;20043;-44
2023/08/17 06:25:34;;;;;;;0.10;0.10;;;;;;;16.11;100.00;101831.28;5052587;28;20044;-49
2023/08/17 06:27:59;;;;;;;0.10;0.10;;;;;;;16.21;100.00;101832.38;5053424;28;20365;-45
2023/08/17 06:30:25;;;;;;;0.10;0.10;;;;;;;16.34;100.00;101826.59;5053077;28;20028;-49
2023/08/17 06:32:51;;;;;;;0.10;0.10;;;;;;;16.51;100.00;101833.88;5053185;28;20035;-47
2023/08/17 06:35:16;;;;;;;0.10;0.10;;;;;;;16.63;100.00;101834.13;5053241;28;20029;-49
2023/08/17 06:37:41;;;;;;;0.10;0.10;;;;;;;16.74;100.00;101830.00;5053139;28;20464;-48
2023/08/17 06:40:09;;;;;;;0.00;0.00;;;;;;;16.88;100.00;101829.41;5052816;28;20047;-44
2023/08/17 06:42:34;;;;;;;0.10;0.10;;;;;;;17.08;100.00;101832.41;5052951;28;20086;-50
2023/08/17 06:44:59;;;;;;;0.10;0.10;;;;;;;17.28;100.00;101836.25;5053100;28;20116;-48
2023/08/17 06:47:25;;;;;;;0.03;0.03;;;;;;;17.33;100.00;101844.16;5052427;28;20064;-45
2023/08/17 06:49:50;;;;;;;0.00;0.00;;;;;;;17.31;100.00;101840.63;5053417;28;20472;-47
2023/08/17 06:52:15;;;;;;;0.10;0.10;;;;;;;17.43;100.00;101830.44;5052738;28;20491;-50
2023/08/17 06:54:41;;;;;;;0.10;0.10;;;;;;;17.44;100.00;101829.59;5052512;28;20112;-45
2023/08/17 06:57:06;;;;;;;0.10;0.10;;;;;;;17.43;100.00;101822.63;5053453;28;20061;-44
2023/08/17 06:59:33;;;;;;;0.03;0.03;;;;;;;17.51;100.00;101833.16;5052213;28;20029;-46
2023/08/17 07:01:58;;;;;;;0.00;0.00;;;;;;;17.71;100.00;101836.09;5053162;28;20017;-49
2023/08/17 07:04:24;;;;;;;0.00;0.00;;;;;;;17.68;100.00;101836.06;5052973;28;20032;-45
2023/08/17 07:06:49;;;;;;;0.10;0.10;;;;;;;17.78;100.00;101837.94;5052204;28;20442;-47
2023/08/17 07:09:15;;;;;;;0.10;0.10;;;;;;;17.83;100.00;101840.66;5052453;28;20425;-49
2023/08/17 07:11:40;;;;;;;0.10;0.10;;;;;;;17.87;100.00;101841.53;5052968;28;20489;-49
2023/08/17 07:14:08;;;;;;;0.10;0.10;;;;;;;17.82;100.00;101837.97;5052239;28;20046;-46
2023/08/17 07:16:34;;;;;;;0.00;0.00;;;;;;;17.87;100.00;101836.31;5052656;28;20456;-48
2023/08/17 07:18:59;;;;;;;0.00;0.00;;;;;;;17.94;100.00;101839.09;5051708;28;20035;-49
2023/08/17 07:21:25;;;;;;;0.10;0.10;;;;;;;18.03;100.00;101837.47;5052040;28;20033;-44
2023/08/17 07:23:54;;;;;;;0.00;0.00;;;;;;;18.29;100.00;101834.38;5052465;28;20064;-45
2023/08/17 07:26:20;;;;;;;0.00;0.00;;;;;;;18.41;100.00;101839.72;5052475;28;20041;-47
2023/08/17 07:28:45;;;;;;;0.00;0.00;;;;;;;18.33;100.00;101836.16;5052316;28;20037;-45
2023/08/17 07:31:10;;;;;;;0.00;0.00;;;;;;;18.26;100.00;101835.19;5052839;28;20036;-46
2023/08/17 07:33:36;;;;;;;0.10;0.10;;;;;;;18.27;100.00;101836.97;5052362;28;20104;-50
2023/08/17 07:36:02;;;;;;;0.10;0.10;;;;;;;18.20;100.00;101845.53;5052187;28;20128;-50
2023/08/17 07:38:27;;;;;;;0.00;0.00;;;;;;;18.25;100.00;101843.88;5052361;28;20032;-45
2023/08/17 07:40:52;;;;;;;0.00;0.00;;;;;;;18.30;100.00;101842.22;5051147;28;20040;-50
2023/08/17 07:43:17;;;;;;;0.00;0.00;;;;;;;18.37;100.00;101838.84;5051431;28;20063;-48
2023/08/17 07:45:43;;;;;;;0.00;0.00;;;;;;;18.53;100.00;101836.41;5052740;28;20052;-49
2023/08/17 07:48:08;;;;;;;0.00;0.00;;;;;;;18.46;100.00;101842.41;5052325;28;20025;-46
2023/08/17 07:50:34;;;;;;;0.00;0.00;;;;;;;18.43;100.00;101838.03;5051816;28;20107;-44
2023/08/17 07:52:59;;;;;;;0.00;0.00;;;;;;;18.52;100.00;101839.88;5052626;28;20032;-44
2023/08/17 07:55:26;;;;;;;0.08;0.08;;;;;;;18.72;100.00;101843.63;5052031;28;20021;-50
2023/08/17 07:57:51;;;;;;;0.00;0.00;;;;;;;19.00;99.09;101846.53;5052082;28;20036;-45
2023/08/17 08:00:17;;;;;;;0.00;0.00;;;;;;;19.07;97.79;101845.75;5052279;28;20024;-46
2023/08/17 08:02:42;;;;;;;0.00;0.00;;;;;;;19.06;96.18;101851.84;5052324;28;20032;-44
2023/08/17 08:05:07;;;;;;;0.00;0.00;;;;;;;18.97;96.56;101856.13;5052015;28;20096;-44
2023/08/17 08:07:33;;;;;;;0.00;0.00;;;;;;;18.93;97.10;101852.59;5052105;28;20021;-50
2023/08/17 08:09:58;;;;;;;0.00;0.00;;;;;;;18.98;98.47;101853.50;5051783;28;20051;-49
2023/08/17 08:12:23;;;;;;;0.10;0.10;;;;;;;18.89;96.63;101846.44;5052009;28;20092;-49
2023/08/17 08:14:49;;;;;;;0.00;0.00;;;;;;;18.97;97.34;101851.75;5052478;28;20482;-50
2023/08/17 08:17:14;;;;;;;0.00;0.00;;;;;;;18.99;97.31;101850.03;5051107;28;20083;-45
2023/08/17 08:19:40;;;;;;;0.10;0.10;;;;;;;19.08;96.20;101849.25;5052253;28;20490;-48
2023/08/17 08:22:05;;;;;;;0.00;0.00;;;;;;;19.30;96.52;101849.47;5051958;28;20025;-48
2023/08/17 08:24:33;;;;;;;0.10;0.10;;;;;;;19.30;94.99;101845.13;5051136;28;20060;-44
2023/08/17 08:26:59;;;;;;;0.00;0.00;;;;;;;19.50;96.23;101844.44;5052454;28;20033;-47
2023/08/17 08:29:24;;;;;;;0.00;0.00;;;;;;;19.60;94.81;101843.63;5052362;28;20055;-45
2023/08/17 08:31:50;;;;;;;0.10;0.10;;;;;;;19.81;95.56;101844.66;5055480;28;20429;-50
2023/08/17 08:34:15;;;;;;;0.00;0.00;;;;;;;19.79;96.10;101849.84;5055844;28;20412;-49
2023/08/17 08:36:40;;;;;;;0.00;0.00;;;;;;;19.51;93.27;101852.28;5055553;28;20033;-48
2023/08/17 08:39:05;;;;;;;0.00;0.00;;;;;;;19.25;94.58;101852.06;5055561;28;20025;-46
2023/08/17 08:41:31;;;;;;;0.00;0.00;;;;;;;18.95;95.35;101843.00;5055672;28;20033;-45
2023/08/17 08:43:57;;;;;;;0.03;0.03;;;;;;;18.85;98.40;101854.19;5054900;28;20025;-50
2023/08/17 08:46:26;;;;;;;0.00;0.00;;;;;;;18.70;97.96;101865.34;5054186;28;20375;-44
2023/08/17 08:48:54;;;;;;;0.10;0.10;;;;;;;18.59;99.02;101857.34;5055561;28;20032;-45
2023/08/17 08:51:25;;;;;;;0.00;0.00;;;;;;;18.59;99.05;101854.75;5054950;28;20025;-46
2023/08/17 08:53:59;;;;;;;0.00;0.00;;;;;;;18.62;98.88;101849.59;5052627;28;20036;-49
2023/08/17 08:56:25;;;;;;;0.10;0.10;;;;;;;18.69;97.64;101846.16;5052892;28;20025;-47
2023/08/17 08:58:52;;;;;;;0.00;0.00;;;;;;;18.67;98.34;101842.69;5053823;28;20024;-45
2023/08/17 09:01:19;;;;;;;0.00;0.00;;;;;;;18.56;97.35;101839.91;5052626;28;20090;-46
2023/08/17 09:03:47;;;;;;;0.00;0.00;;;;;;;18.52;98.45;101843.34;5054548;28;20267;-49
2023/08/17 09:06:14;;;;;;;0.10;0.00;;;;;;;18.52;99.25;101840.75;5054114;28;20033;-48
2023/08/17 09:08:40;;;;;;;0.00;0.00;;;;;;;18.50;99.35;101834.66;5055361;28;20040;-51
2023/08/17 09:11:05;;;;;;;0.08;0.08;;;;;;;18.51;100.00;101835.50;5055097;28;20021;-51
2023/08/17 09:13:30;;;;;;;0.10;0.10;;;;;;;18.47;99.59;101833.72;5054445;28;20067;-46
2023/08/17 09:15:59;;;;;;;0.00;0.00;;;;;;;18.52;100.00;101839.88;5055211;28;20021;-46
2023/08/17 09:18:24;;;;;;;0.00;0.00;;;;;;;18.41;100.00;101824.97;5054552;28;20021;-51
2023/08/17 09:20:51;;;;;;;0.00;0.00;;;;;;;18.30;100.00;101834.38;5054699;28;20031;-47
2023/08/17 09:23:19;;;;;;;0.00;0.00;;;;;;;18.23;99.94;101836.03;5054842;28;20075;-50
2023/08/17 09:25:46;;;;;;;0.10;0.10;;;;;;;18.15;100.00;101840.25;5054543;28;20069;-50
2023/08/17 09:28:14;;;;;;;0.10;0.10;;;;;;;18.13;100.00;101839.38;5054213;28;20468;-45
2023/08/17 09:31:05;;;;;;;0.00;0.00;;;;;;;18.23;100.00;101840.34;5054950;28;20040;-46
2023/08/17 09:33:31;;;;;;;0.00;0.00;;;;;;;18.19;100.00;101830.75;5054444;28;20039;-50
2023/08/17 09:35:58;;;;;;;0.00;0.00;;;;;;;18.29;100.00;101830.00;5054403;28;20025;-50
2023/08/17 09:38:24;;;;;;;0.03;0.03;;;;;;;18.25;100.00;101831.69;5054268;28;20040;-48
2023/08/17 09:40:50;;;;;;;0.00;0.00;;;;;;;18.34;100.00;101833.56;5053634;28;20025;-47
2023/08/17 09:43:17;;;;;;;0.00;0.00;;;;;;;18.32;100.00;101830.06;5053493;28;20099;-50
2023/08/17 09:45:49;;;;;;;0.00;0.00;;;;;;;18.20;100.00;101829.88;5054597;28;20033;-50
2023/08/17 09:48:18;;;;;;;0.00;0.00;;;;;;;18.22;100.00;101825.59;5054028;28;20025;-51
2023/08/17 09:50:46;;;;;;;0.10;0.10;;;;;;;18.23;100.00;101822.09;5054457;28;20021;-45
2023/08/17 09:53:15;;;;;;;0.00;0.00;;;;;;;18.28;100.00;101820.41;5053943;28;20075;-47
2023/08/17 09:55:42;;;;;;;0.00;0.00;;;;;;;18.25;100.00;101820.38;5053728;28;20029;-45
2023/08/17 09:58:08;;;;;;;0.05;0.05;;;;;;;18.26;100.00;101811.72;5054155;28;20036;-49
2023/08/17 10:00:34;;;;;;;0.00;0.00;;;;;;;18.37;100.00;101815.34;5053858;28;20029;-46
2023/08/17 10:03:02;;;;;;;0.00;0.00;;;;;;;18.56;100.00;101815.56;5053513;28;20548;-49
2023/08/17 10:05:31;;;;;;;0.00;0.00;;;;;;;18.58;100.00;101816.47;5053822;28;20025;-47
2023/08/17 10:07:59;;;;;;;0.00;0.00;;;;;;;18.67;100.00;101806.13;5053822;28;20025;-48
2023/08/17 10:10:26;;;;;;;0.00;0.00;;;;;;;18.65;100.00;101813.06;5053095;28;20033;-49
2023/08/17 10:13:07;;;;;;;0.10;0.10;;;;;;;18.67;100.00;101815.66;5054141;28;20056;-49
2023/08/17 10:15:37;;;;;;;0.10;0.10;;;;;;;18.56;100.00;101805.97;5053290;28;20479;-48
2023/08/17 10:18:26;;;;;;;0.08;0.08;;;;;;;18.54;100.00;101801.59;5053365;28;20535;-50
2023/08/17 10:21:01;;;;;;;0.00;0.00;;;;;;;18.56;100.00;101803.38;5053853;28;20029;-44
2023/08/17 10:23:28;;;;;;;0.00;0.00;;;;;;;18.57;100.00;101799.03;5053158;28;20078;-45
2023/08/17 10:25:53;;;;;;;0.30;0.17;;;;;;;18.57;100.00;101799.91;5053552;28;20120;-47
2023/08/17 10:28:21;;;;;;;0.00;0.00;;;;;;;18.55;100.00;101790.31;5053165;28;20159;-49
2023/08/17 10:30:47;;;;;;;;;;;;;;;18.83;100.00;101798.47;5053553;28;20047;-47
2023/08/17 10:33:14;;;;;;;0.00;0.00;;;;;;;18.75;100.00;101790.53;5053558;28;19928;-49
2023/08/17 10:35:41;;;;;;;0.10;0.10;;;;;;;18.85;100.00;101787.16;5053268;28;20028;-49
2023/08/17 10:38:07;;;;;;;0.10;0.10;;;;;;;18.91;100.00;101789.88;5052866;28;20025;-48
2023/08/17 10:40:37;;;;;;;0.00;0.00;;;;;;;19.16;100.00;101791.84;5053392;28;20033;-44
2023/08/17 10:43:03;;;;;;;0.00;0.00;;;;;;;19.25;99.81;101794.56;5053296;28;20109;-44
2023/08/17 10:45:34;;;;;;;0.03;0.03;;;;;;;19.28;99.78;101798.94;5052550;28;20110;-45
2023/08/17 10:48:05;;;;;;;0.05;0.05;;;;;;;19.45;100.00;101802.53;5053317;28;20058;-47
2023/08/17 10:50:31;;;;;;;0.03;0.03;;;;;;;19.29;100.00;101805.88;5052789;28;20441;-47
2023/08/17 10:52:56;;;;;;;0.00;0.00;;;;;;;19.34;99.80;101798.97;5052419;28;20108;-50
2023/08/17 10:55:44;;;;;;;0.00;0.00;;;;;;;19.40;100.00;101805.09;5052967;28;20043;-49
2023/08/17 10:58:09;;;;;;;0.00;0.00;;;;;;;19.22;100.00;101800.63;5053076;28;20127;-50
2023/08/17 11:00:36;;;;;;;0.08;0.08;;;;;;;19.18;100.00;101800.56;5052079;28;20096;-45
2023/08/17 11:03:19;;;;;;;0.00;0.00;;;;;;;19.35;100.00;101806.84;5053342;28;20097;-44
2023/08/17 11:05:49;;;;;;;0.10;0.10;;;;;;;19.19;100.00;101804.94;5052737;28;20090;-50
2023/08/17 11:08:31;;;;;;;0.00;0.00;;;;;;;19.09;100.00;101798.75;5052728;28;20075;-49
2023/08/17 11:11:17;;;;;;;0.10;0.10;;;;;;;18.95;100.00;101798.59;5052722;28;20479;-45
2023/08/17 11:13:44;;;;;;;0.00;0.00;;;;;;;19.04;100.00;101798.72;5051818;28;20037;-50
2023/08/17 11:16:12;;;;;;;0.00;0.00;;;;;;;19.07;100.00;101801.34;5053009;28;20032;-49